createdAt,value
2022-11-27T00:00:17.693Z,100169.44
2022-11-27T00:02:46.307Z,100159.16
2022-11-27T00:05:14.904Z,100166.91
2022-11-27T00:07:43.648Z,100169.94
2022-11-27T00:10:14.192Z,100166.56
2022-11-27T00:12:42.720Z,100184.19
2022-11-27T00:15:16.942Z,100192.38
2022-11-27T00:17:46.060Z,100175.13
2022-11-27T00:20:15.349Z,100177.22
2022-11-27T00:22:43.743Z,100190.78
2022-11-27T00:25:13.705Z,100183.38
2022-11-27T00:27:42.339Z,100174.34
2022-11-27T00:30:11.769Z,100192.50
2022-11-27T00:32:40.183Z,100203.91
2022-11-27T00:35:09.514Z,100193.47
2022-11-27T00:37:38.504Z,100202.03
2022-11-27T00:40:08.691Z,100211.63
2022-11-27T00:42:38.589Z,100223.25
2022-11-27T00:45:07.814Z,100206.00
2022-11-27T00:47:38.248Z,100217.16
2022-11-27T00:50:07.905Z,100216.81
2022-11-27T00:52:37.441Z,100219.94
2022-11-27T00:55:06.641Z,100233.13
2022-11-27T00:57:35.221Z,100255.22
2022-11-27T01:00:06.067Z,100240.72
2022-11-27T01:02:35.337Z,100245.16
2022-11-27T01:05:03.860Z,100263.03
2022-11-27T01:07:32.663Z,100265.69
2022-11-27T01:10:01.132Z,100259.44
2022-11-27T01:12:29.670Z,100263.28
2022-11-27T01:14:58.319Z,100275.31
2022-11-27T01:17:28.268Z,100280.72
2022-11-27T01:19:56.810Z,100265.00
2022-11-27T01:22:25.370Z,100274.47
2022-11-27T01:24:53.878Z,100281.28
2022-11-27T01:27:23.509Z,100277.81
2022-11-27T01:29:52.137Z,100274.72
2022-11-27T01:32:20.646Z,100275.44
2022-11-27T01:34:50.888Z,100283.72
2022-11-27T01:37:19.595Z,100279.91
2022-11-27T01:39:48.130Z,100282.06
2022-11-27T01:42:16.637Z,100292.47
2022-11-27T01:44:53.680Z,100301.38
2022-11-27T01:47:39.592Z,100297.06
2022-11-27T01:50:15.327Z,100299.94
2022-11-27T01:52:49.815Z,100306.88
2022-11-27T01:55:25.000Z,100315.88
2022-11-27T01:57:56.760Z,100323.66
2022-11-27T02:00:26.451Z,100315.28
2022-11-27T02:02:55.253Z,100320.78
2022-11-27T02:05:28.951Z,100317.69
2022-11-27T02:07:59.417Z,100315.41
2022-11-27T02:10:37.651Z,100315.88
2022-11-27T02:13:11.643Z,100322.50
2022-11-27T02:15:48.662Z,100324.53
2022-11-27T02:18:25.929Z,100337.09
2022-11-27T02:21:05.910Z,100343.69
2022-11-27T02:24:07.319Z,100340.56
2022-11-27T02:27:12.201Z,100318.41
2022-11-27T02:29:44.431Z,100327.88
2022-11-27T02:32:21.539Z,100332.06
2022-11-27T02:34:56.743Z,100328.47
2022-11-27T02:37:34.212Z,100316.97
2022-11-27T02:40:06.995Z,100320.69
2022-11-27T02:42:40.855Z,100314.44
2022-11-27T02:45:14.530Z,100310.84
2022-11-27T02:47:46.446Z,100320.31
2022-11-27T02:50:19.700Z,100303.78
2022-11-27T02:52:51.701Z,100308.81
2022-11-27T02:55:24.590Z,100314.81
2022-11-27T02:57:57.452Z,100314.81
2022-11-27T03:00:27.624Z,100307.88
2022-11-27T03:03:00.858Z,100313.59
2022-11-27T03:05:34.166Z,100320.78
2022-11-27T03:08:08.763Z,100306.66
2022-11-27T03:10:41.840Z,100315.28
2022-11-27T03:13:10.518Z,100314.56
2022-11-27T03:15:46.927Z,100321.03
2022-11-27T03:18:24.152Z,100324.84
2022-11-27T03:21:00.190Z,100311.19
2022-11-27T03:23:29.941Z,100307.84
2022-11-27T03:25:58.699Z,100318.03
2022-11-27T03:28:30.239Z,100314.09
2022-11-27T03:31:00.414Z,100310.84
2022-11-27T03:33:29.225Z,100318.59
2022-11-27T03:35:57.810Z,100311.44
2022-11-27T03:38:27.493Z,100311.53
2022-11-27T03:41:07.091Z,100322.91
2022-11-27T03:43:43.632Z,100316.72
2022-11-27T03:46:25.687Z,100324.34
2022-11-27T03:49:04.411Z,100318.25
2022-11-27T03:51:41.102Z,100319.09
2022-11-27T03:54:18.069Z,100313.94
2022-11-27T03:56:54.811Z,100315.00
2022-11-27T03:59:27.459Z,100319.44
2022-11-27T04:01:57.933Z,100318.97
2022-11-27T04:04:27.183Z,100325.81
2022-11-27T04:06:55.852Z,100323.78
2022-11-27T04:09:25.608Z,100325.81
2022-11-27T04:11:54.072Z,100333.22
2022-11-27T04:14:22.627Z,100326.78
2022-11-27T04:16:51.151Z,100336.44
2022-11-27T04:19:21.135Z,100335.88
2022-11-27T04:21:49.671Z,100343.50
2022-11-27T04:24:18.510Z,100355.00
2022-11-27T04:26:46.961Z,100343.28
2022-11-27T04:29:15.629Z,100342.88
2022-11-27T04:31:44.191Z,100342.41
2022-11-27T04:34:12.755Z,100346.59
2022-11-27T04:36:42.950Z,100350.16
2022-11-27T04:39:13.556Z,100353.56
2022-11-27T04:41:42.170Z,100343.63
2022-11-27T04:44:10.792Z,100342.69
2022-11-27T04:46:39.432Z,100357.03
2022-11-27T04:49:08.000Z,100354.03
2022-11-27T04:51:36.611Z,100345.03
2022-11-27T04:54:06.726Z,100352.38
2022-11-27T04:56:35.291Z,100349.72
2022-11-27T04:59:03.769Z,100343.72
2022-11-27T05:01:32.621Z,100384.41
2022-11-27T05:04:01.184Z,100355.91
2022-11-27T05:06:29.619Z,100352.31
2022-11-27T05:09:02.179Z,100360.56
2022-11-27T05:11:33.467Z,100344.03
2022-11-27T05:14:18.640Z,100340.31
2022-11-27T05:16:49.440Z,100342.75
2022-11-27T05:19:19.771Z,100341.06
2022-11-27T05:21:49.309Z,100347.53
2022-11-27T05:24:19.879Z,100337.25
2022-11-27T05:26:50.210Z,100337.69
2022-11-27T05:29:18.910Z,100340.66
2022-11-27T05:31:47.601Z,100329.78
2022-11-27T05:34:16.361Z,100350.16
2022-11-27T05:36:46.081Z,100337.19
2022-11-27T05:39:14.310Z,100358.75
2022-11-27T05:41:44.537Z,100347.38
2022-11-27T05:44:16.680Z,100345.56
2022-11-27T05:46:45.438Z,100356.72
2022-11-27T05:49:16.201Z,100340.09
2022-11-27T05:51:50.975Z,100341.00
2022-11-27T05:54:22.797Z,100352.28
2022-11-27T05:56:51.199Z,100334.91
2022-11-27T05:59:21.590Z,100335.03
2022-11-27T06:01:50.634Z,100328.09
2022-11-27T06:04:19.860Z,100333.94
2022-11-27T06:06:48.419Z,100328.34
2022-11-27T06:09:16.906Z,100329.09
2022-11-27T06:11:45.522Z,100328.88
2022-11-27T06:14:13.979Z,100327.97
2022-11-27T06:16:44.303Z,100315.44
2022-11-27T06:19:12.864Z,100326.75
2022-11-27T06:21:41.401Z,100332.47
2022-11-27T06:24:09.892Z,100331.50
2022-11-27T06:26:38.421Z,100329.13
2022-11-27T06:29:07.049Z,100329.38
2022-11-27T06:31:38.931Z,100342.66
2022-11-27T06:34:09.493Z,100337.03
2022-11-27T06:36:41.475Z,100328.19
2022-11-27T06:39:12.348Z,100340.78
2022-11-27T06:41:41.012Z,100342.66
2022-11-27T06:44:11.381Z,100345.75
2022-11-27T06:46:39.928Z,100351.56
2022-11-27T06:49:11.605Z,100357.25
2022-11-27T06:51:40.262Z,100351.25
2022-11-27T06:54:08.914Z,100342.88
2022-11-27T06:56:37.480Z,100342.38
2022-11-27T06:59:06.439Z,100339.88
2022-11-27T07:01:35.179Z,100339.59
2022-11-27T07:04:03.778Z,100337.53
2022-11-27T07:06:37.041Z,100345.63
2022-11-27T07:09:06.458Z,100346.66
2022-11-27T07:11:35.799Z,100337.28
2022-11-27T07:14:06.485Z,100332.78
2022-11-27T07:16:37.530Z,100323.09
2022-11-27T07:19:08.227Z,100334.31
2022-11-27T07:21:40.283Z,100334.09
2022-11-27T07:24:09.510Z,100333.47
2022-11-27T07:26:40.023Z,100329.25
2022-11-27T07:29:08.777Z,100327.47
2022-11-27T07:31:37.607Z,100325.78
2022-11-27T07:34:11.706Z,100331.28
2022-11-27T07:36:47.698Z,100322.31
2022-11-27T07:39:25.267Z,100330.75
2022-11-27T07:42:16.737Z,100325.69
2022-11-27T07:44:51.764Z,100335.00
2022-11-27T07:47:20.372Z,100323.28
2022-11-27T07:49:48.940Z,100334.97
2022-11-27T07:52:18.809Z,100330.41
2022-11-27T07:54:47.345Z,100332.38
2022-11-27T07:57:15.869Z,100337.47
2022-11-27T07:59:47.323Z,100334.13
2022-11-27T08:02:16.794Z,100338.84
2022-11-27T08:04:45.578Z,100340.03
2022-11-27T08:07:14.584Z,100344.03
2022-11-27T08:09:44.788Z,100341.22
2022-11-27T08:12:13.339Z,100336.69
2022-11-27T08:14:42.099Z,100328.13
2022-11-27T08:17:14.640Z,100334.13
2022-11-27T08:19:43.322Z,100329.25
2022-11-27T08:22:14.101Z,100315.38
2022-11-27T08:24:44.177Z,100316.72
2022-11-27T08:27:13.456Z,100313.28
2022-11-27T08:29:43.251Z,100313.19
2022-11-27T08:32:12.433Z,100311.31
2022-11-27T08:34:43.908Z,100308.78
2022-11-27T08:37:12.619Z,100311.81
2022-11-27T08:39:43.667Z,100318.16
2022-11-27T08:42:12.438Z,100313.59
2022-11-27T08:44:41.255Z,100323.63
2022-11-27T08:47:10.095Z,100320.13
2022-11-27T08:49:45.930Z,100323.88
2022-11-27T08:52:15.425Z,100315.22
2022-11-27T08:54:45.432Z,100310.53
2022-11-27T08:57:13.920Z,100300.16
2022-11-27T08:59:45.324Z,100306.75
2022-11-27T09:02:14.145Z,100310.69
2022-11-27T09:04:42.826Z,100307.44
2022-11-27T09:07:14.573Z,100310.22
2022-11-27T09:09:44.835Z,100298.03
2022-11-27T09:12:13.971Z,100299.56
2022-11-27T09:14:44.848Z,100299.97
2022-11-27T09:17:13.498Z,100302.13
2022-11-27T09:19:44.595Z,100301.50
2022-11-27T09:22:13.161Z,100293.09
2022-11-27T09:24:42.193Z,100299.34
2022-11-27T09:27:15.251Z,100296.56
2022-11-27T09:29:43.794Z,100302.81
2022-11-27T09:32:12.600Z,100301.00
2022-11-27T09:34:41.435Z,100304.84
2022-11-27T09:37:10.431Z,100288.47
2022-11-27T09:39:39.220Z,100292.00
2022-11-27T09:42:16.678Z,100301.69
2022-11-27T09:44:52.309Z,100292.63
2022-11-27T09:47:38.394Z,100289.03
2022-11-27T09:50:15.820Z,100282.94
2022-11-27T09:52:49.871Z,100283.41
2022-11-27T09:55:25.484Z,100294.66
2022-11-27T09:58:00.747Z,100297.59
2022-11-27T10:00:31.096Z,100300.78
2022-11-27T10:02:59.877Z,100290.97
2022-11-27T10:05:34.803Z,100274.13
2022-11-27T10:08:19.525Z,100280.44
2022-11-27T10:11:02.051Z,100278.16
2022-11-27T10:13:44.586Z,100281.88
2022-11-27T10:16:27.722Z,100283.06
2022-11-27T10:18:59.910Z,100276.94
2022-11-27T10:21:37.696Z,100274.34
2022-11-27T10:24:17.609Z,100267.88
2022-11-27T10:26:48.449Z,100258.97
2022-11-27T10:29:30.799Z,100256.31
2022-11-27T10:32:05.443Z,100267.13
2022-11-27T10:34:43.648Z,100266.94
2022-11-27T10:37:19.199Z,100248.00
2022-11-27T10:39:53.022Z,100257.59
2022-11-27T10:42:26.216Z,100245.03
2022-11-27T10:45:00.990Z,100244.38
2022-11-27T10:47:33.846Z,100242.47
2022-11-27T10:50:02.968Z,100245.50
2022-11-27T10:52:31.401Z,100255.41
2022-11-27T10:55:03.990Z,100251.81
2022-11-27T10:57:59.355Z,100249.00
2022-11-27T11:00:29.645Z,100240.66
2022-11-27T11:03:03.777Z,100239.66
2022-11-27T11:05:57.475Z,100242.00
2022-11-27T11:08:26.653Z,100228.06
2022-11-27T11:10:59.638Z,100231.09
2022-11-27T11:13:28.701Z,100230.69
2022-11-27T11:16:02.013Z,100230.44
2022-11-27T11:18:34.730Z,100223.53
2022-11-27T11:21:07.527Z,100225.34
2022-11-27T11:23:40.248Z,100233.94
2022-11-27T11:26:16.846Z,100228.47
2022-11-27T11:28:52.286Z,100219.94
2022-11-27T11:31:24.690Z,100225.50
2022-11-27T11:33:59.951Z,100212.94
2022-11-27T11:36:30.132Z,100191.75
2022-11-27T11:38:59.812Z,100201.50
2022-11-27T11:41:40.592Z,100194.59
2022-11-27T11:44:26.508Z,100198.63
2022-11-27T11:46:57.702Z,100184.25
2022-11-27T11:49:29.244Z,100201.09
2022-11-27T11:52:22.834Z,100189.66
2022-11-27T11:55:01.503Z,100171.97
2022-11-27T11:58:10.485Z,100179.72
2022-11-27T12:01:19.465Z,100178.44
2022-11-27T12:03:43.110Z,100172.13
2022-11-27T12:06:32.818Z,100164.72
2022-11-27T12:09:13.642Z,100160.41
2022-11-27T12:11:50.747Z,100152.88
2022-11-27T12:14:36.113Z,100165.06
2022-11-27T12:17:19.033Z,100151.09
2022-11-27T12:20:00.009Z,100151.34
2022-11-27T12:22:50.394Z,100163.66
2022-11-27T12:25:30.294Z,100174.31
2022-11-27T12:28:13.254Z,100155.47
2022-11-27T12:30:52.267Z,100141.66
2022-11-27T12:33:42.808Z,100130.66
2022-11-27T12:36:23.882Z,100126.69
2022-11-27T12:39:11.029Z,100102.44
2022-11-27T12:42:04.119Z,100091.16
2022-11-27T12:44:47.884Z,100087.50
2022-11-27T12:47:24.744Z,100092.31
2022-11-27T12:50:00.862Z,100083.78
2022-11-27T12:52:35.712Z,100073.63
2022-11-27T12:55:15.075Z,100059.78
2022-11-27T12:57:50.456Z,100057.81
2022-11-27T13:00:24.323Z,100049.63
2022-11-27T13:03:04.248Z,100053.25
2022-11-27T13:05:39.787Z,100045.31
2022-11-27T13:08:15.494Z,100037.09
2022-11-27T13:10:53.664Z,100040.69
2022-11-27T13:13:29.621Z,100024.94
2022-11-27T13:16:04.203Z,100024.00
2022-11-27T13:18:38.220Z,100003.94
2022-11-27T13:21:11.302Z,100008.28
2022-11-27T13:23:40.029Z,100003.25
2022-11-27T13:26:20.708Z,100007.59
2022-11-27T13:28:55.786Z,100007.16
2022-11-27T13:31:27.143Z,100008.00
2022-11-27T13:34:02.513Z,100002.84
2022-11-27T13:36:38.784Z,99998.94
2022-11-27T13:39:08.747Z,100003.13
2022-11-27T13:41:41.437Z,99993.91
2022-11-27T13:44:25.740Z,99995.63
2022-11-27T13:46:59.594Z,99969.47
2022-11-27T13:49:32.381Z,99965.28
2022-11-27T13:52:12.462Z,99981.97
2022-11-27T13:54:53.367Z,99974.19
2022-11-27T13:57:24.572Z,99973.31
2022-11-27T14:00:04.657Z,99964.72
2022-11-27T14:02:44.752Z,99970.44
2022-11-27T14:05:15.102Z,99973.75
2022-11-27T14:07:46.911Z,99977.53
2022-11-27T14:10:19.101Z,99963.88
2022-11-27T14:12:57.427Z,99958.97
2022-11-27T14:15:27.742Z,99958.53
2022-11-27T14:18:06.981Z,99962.81
2022-11-27T14:20:39.537Z,99966.44
2022-11-27T14:23:13.138Z,99949.19
2022-11-27T14:25:42.914Z,99948.22
2022-11-27T14:28:18.260Z,99946.81
2022-11-27T14:30:49.926Z,99930.28
2022-11-27T14:33:21.037Z,99936.28
2022-11-27T14:35:54.177Z,99926.97
2022-11-27T14:38:24.649Z,99920.78
2022-11-27T14:40:55.196Z,99917.00
2022-11-27T14:43:27.488Z,99909.78
2022-11-27T14:46:00.638Z,99914.28
2022-11-27T14:48:33.579Z,99920.50
2022-11-27T14:51:03.397Z,99919.63
2022-11-27T14:53:32.928Z,99917.00
2022-11-27T14:56:01.567Z,99912.16
2022-11-27T14:58:31.800Z,99911.03
2022-11-27T15:01:02.804Z,99899.78
2022-11-27T15:03:32.473Z,99907.41
2022-11-27T15:06:03.197Z,99915.06
2022-11-27T15:08:35.651Z,99901.56
2022-11-27T15:11:06.477Z,99905.75
2022-11-27T15:13:38.871Z,99900.19
2022-11-27T15:16:16.167Z,99894.47
2022-11-27T15:18:49.853Z,99884.22
2022-11-27T15:21:26.738Z,99877.38
2022-11-27T15:23:57.546Z,99884.16
2022-11-27T15:26:35.962Z,99877.94
2022-11-27T15:29:06.104Z,99874.31
2022-11-27T15:31:37.782Z,99878.75
2022-11-27T15:34:22.131Z,99873.56
2022-11-27T15:36:55.845Z,99873.38
2022-11-27T15:39:26.716Z,99868.25
2022-11-27T15:41:58.225Z,99868.78
2022-11-27T15:44:29.707Z,99865.44
2022-11-27T15:47:00.296Z,99854.44
2022-11-27T15:49:29.469Z,99843.47
2022-11-27T15:51:59.550Z,99868.44
2022-11-27T15:54:28.169Z,99864.69
2022-11-27T15:56:56.791Z,99869.09
2022-11-27T15:59:29.554Z,99861.88
2022-11-27T16:01:58.277Z,99865.03
2022-11-27T16:04:27.298Z,99866.28
2022-11-27T16:06:55.635Z,99865.69
2022-11-27T16:09:24.313Z,99874.59
2022-11-27T16:11:52.858Z,99882.41
2022-11-27T16:14:21.603Z,99865.22
2022-11-27T16:16:52.461Z,99866.34
2022-11-27T16:19:21.808Z,99867.84
2022-11-27T16:21:50.331Z,99864.50
2022-11-27T16:24:18.868Z,99850.63
2022-11-27T16:26:47.217Z,99858.09
2022-11-27T16:29:15.649Z,99860.72
2022-11-27T16:31:44.457Z,99841.31
2022-11-27T16:34:18.138Z,99866.00
2022-11-27T16:36:46.823Z,99850.63
2022-11-27T16:39:15.668Z,99866.94
2022-11-27T16:41:44.023Z,99868.31
2022-11-27T16:44:15.222Z,99869.81
2022-11-27T16:46:45.021Z,99861.50
2022-11-27T16:49:13.551Z,99857.19
2022-11-27T16:51:44.040Z,99854.81
2022-11-27T16:54:15.067Z,99847.41
2022-11-27T16:56:44.352Z,99843.25
2022-11-27T16:59:15.346Z,99849.34
2022-11-27T17:01:44.495Z,99846.91
2022-11-27T17:04:18.753Z,99848.16
2022-11-27T17:06:53.053Z,99836.25
2022-11-27T17:09:23.111Z,99836.94
2022-11-27T17:11:51.682Z,99829.16
2022-11-27T17:14:21.221Z,99834.56
2022-11-27T17:16:51.364Z,99826.34
2022-11-27T17:19:34.498Z,99826.88
2022-11-27T17:22:04.616Z,99810.81
2022-11-27T17:24:35.898Z,99811.06
2022-11-27T17:27:04.709Z,99803.03
2022-11-27T17:29:34.066Z,99800.09
2022-11-27T17:32:02.768Z,99794.66
2022-11-27T17:34:31.444Z,99793.19
2022-11-27T17:37:00.324Z,99804.25
2022-11-27T17:39:30.360Z,99803.31
2022-11-27T17:41:59.221Z,99805.22
2022-11-27T17:44:27.984Z,99808.22
2022-11-27T17:46:56.553Z,99798.84
2022-11-27T17:49:24.843Z,99793.19
2022-11-27T17:51:53.204Z,99798.13
2022-11-27T17:54:21.719Z,99795.06
2022-11-27T17:56:54.582Z,99780.91
2022-11-27T17:59:23.413Z,99783.31
2022-11-27T18:01:53.749Z,99779.16
2022-11-27T18:04:23.405Z,99778.28
2022-11-27T18:06:52.702Z,99773.00
2022-11-27T18:09:21.153Z,99779.97
2022-11-27T18:11:49.720Z,99785.34
2022-11-27T18:14:19.658Z,99776.03
2022-11-27T18:16:48.267Z,99783.38
2022-11-27T18:19:17.213Z,99793.19
2022-11-27T18:21:45.758Z,99783.19
2022-11-27T18:24:22.951Z,99776.81
2022-11-27T18:27:08.036Z,99773.25
2022-11-27T18:29:40.336Z,99770.34
2022-11-27T18:32:10.649Z,99772.31
2022-11-27T18:34:40.430Z,99756.66
2022-11-27T18:37:09.822Z,99754.41
2022-11-27T18:39:39.964Z,99763.53
2022-11-27T18:42:09.771Z,99759.78
2022-11-27T18:44:45.187Z,99756.09
2022-11-27T18:47:14.614Z,99749.81
2022-11-27T18:49:44.587Z,99763.44
2022-11-27T18:52:13.622Z,99761.38
2022-11-27T18:54:42.113Z,99758.34
2022-11-27T18:57:12.382Z,99786.47
2022-11-27T18:59:45.054Z,99807.41
2022-11-27T19:02:14.773Z,99809.44
2022-11-27T19:04:45.047Z,99821.66
2022-11-27T19:07:15.449Z,99795.53
2022-11-27T19:09:44.163Z,99788.84
2022-11-27T19:12:14.212Z,99780.25
2022-11-27T19:14:46.505Z,99766.06
2022-11-27T19:17:15.127Z,99732.41
2022-11-27T19:19:54.168Z,99733.81
2022-11-27T19:22:23.724Z,99712.34
2022-11-27T19:24:52.314Z,99720.34
2022-11-27T19:27:23.275Z,99726.06
2022-11-27T19:29:54.495Z,99715.56
2022-11-27T19:32:22.976Z,99725.13
2022-11-27T19:34:54.529Z,99728.22
2022-11-27T19:37:33.987Z,99732.16
2022-11-27T19:40:06.893Z,99734.88
2022-11-27T19:42:35.750Z,99736.06
2022-11-27T19:45:06.618Z,99734.88
2022-11-27T19:47:35.279Z,99749.47
2022-11-27T19:50:04.226Z,99745.25
2022-11-27T19:52:34.753Z,99754.09
2022-11-27T19:55:03.236Z,99754.94
2022-11-27T19:57:31.896Z,99759.47
2022-11-27T20:00:00.489Z,99770.69
2022-11-27T20:02:31.911Z,99762.47
2022-11-27T20:05:00.312Z,99759.72
2022-11-27T20:07:29.048Z,99753.53
2022-11-27T20:09:57.739Z,99752.34
2022-11-27T20:12:26.177Z,99751.59
2022-11-27T20:14:54.700Z,99748.50
2022-11-27T20:17:23.476Z,99742.06
2022-11-27T20:19:53.385Z,99733.47
2022-11-27T20:22:21.926Z,99743.84
2022-11-27T20:25:17.326Z,99718.69
2022-11-27T20:27:39.896Z,99714.50
2022-11-27T20:30:10.404Z,99709.84
2022-11-27T20:32:38.999Z,99699.22
2022-11-27T20:35:10.117Z,99699.09
2022-11-27T20:37:39.091Z,99700.97
2022-11-27T20:40:09.527Z,99709.34
2022-11-27T20:42:38.515Z,99714.38
2022-11-27T20:45:08.239Z,99711.63
2022-11-27T20:47:36.873Z,99706.38
2022-11-27T20:50:09.403Z,99703.75
2022-11-27T20:52:38.068Z,99705.31
2022-11-27T20:55:08.022Z,99703.75
2022-11-27T20:57:36.679Z,99690.84
2022-11-27T21:00:07.844Z,99693.78
2022-11-27T21:02:36.892Z,99682.81
2022-11-27T21:05:05.907Z,99686.41
2022-11-27T21:07:38.966Z,99691.44
2022-11-27T21:10:09.273Z,99691.56
2022-11-27T21:12:39.218Z,99687.75
2022-11-27T21:15:09.739Z,99686.31
2022-11-27T21:17:39.254Z,99696.25
2022-11-27T21:20:09.399Z,99701.97
2022-11-27T21:22:42.900Z,99693.84
2022-11-27T21:25:11.925Z,99699.09
2022-11-27T21:27:41.264Z,99698.50
2022-11-27T21:30:10.855Z,99699.81
2022-11-27T21:32:39.329Z,99692.25
2022-11-27T21:35:08.727Z,99693.00
2022-11-27T21:37:38.893Z,99691.81
2022-11-27T21:40:09.795Z,99676.50
2022-11-27T21:42:43.100Z,99677.84
2022-11-27T21:45:13.312Z,99673.66
2022-11-27T21:47:41.709Z,99673.88
2022-11-27T21:50:14.180Z,99667.88
2022-11-27T21:52:44.124Z,99666.81
2022-11-27T21:55:12.631Z,99661.44
2022-11-27T21:57:41.712Z,99653.19
2022-11-27T22:00:11.168Z,99660.69
2022-11-27T22:02:39.978Z,99654.38
2022-11-27T22:05:09.978Z,99650.63
2022-11-27T22:07:38.626Z,99656.25
2022-11-27T22:10:11.454Z,99653.41
2022-11-27T22:12:39.845Z,99649.22
2022-11-27T22:15:09.315Z,99653.41
2022-11-27T22:17:40.158Z,99647.06
2022-11-27T22:20:10.670Z,99644.63
2022-11-27T22:22:39.221Z,99642.34
2022-11-27T22:25:10.169Z,99647.72
2022-11-27T22:27:38.830Z,99648.44
2022-11-27T22:30:08.872Z,99643.19
2022-11-27T22:32:40.069Z,99653.47
2022-11-27T22:35:09.266Z,99660.69
2022-11-27T22:37:37.798Z,99652.41
2022-11-27T22:40:08.426Z,99662.78
2022-11-27T22:42:38.527Z,99661.50
2022-11-27T22:45:08.887Z,99663.41
2022-11-27T22:47:37.433Z,99657.91
2022-11-27T22:50:07.594Z,99664.06
2022-11-27T22:52:37.448Z,99659.72
2022-11-27T22:55:06.633Z,99659.25
2022-11-27T22:57:35.488Z,99664.38
2022-11-27T23:00:10.107Z,99657.91
2022-11-27T23:02:39.760Z,99647.31
2022-11-27T23:05:08.691Z,99653.25
2022-11-27T23:07:37.473Z,99650.53
2022-11-27T23:10:06.759Z,99644.16
2022-11-27T23:12:35.293Z,99646.31
2022-11-27T23:15:05.892Z,99648.59
2022-11-27T23:17:34.439Z,99659.56
2022-11-27T23:20:02.905Z,99669.72
2022-11-27T23:22:32.670Z,99651.66
2022-11-27T23:25:01.207Z,99654.16
2022-11-27T23:27:29.928Z,99649.25
2022-11-27T23:29:58.458Z,99639.56
2022-11-27T23:32:29.534Z,99640.13
2022-11-27T23:34:58.153Z,99632.13
2022-11-27T23:37:26.867Z,99625.75
2022-11-27T23:39:55.181Z,99632.13
2022-11-27T23:42:23.545Z,99625.59
2022-11-27T23:44:51.913Z,99629.88
2022-11-27T23:47:21.410Z,99621.09
2022-11-27T23:49:51.759Z,99623.44
2022-11-27T23:52:20.243Z,99619.59
2022-11-27T23:54:48.949Z,99625.38
2022-11-27T23:57:17.524Z,99622.00
2022-11-27T23:59:46.327Z,99628.38
